createdAt,value
2023-02-06T00:01:52.034Z,74.67
2023-02-06T00:04:20.444Z,74.78
2023-02-06T00:06:49.227Z,74.79
2023-02-06T00:09:17.465Z,74.81
2023-02-06T00:11:45.824Z,74.71
2023-02-06T00:14:14.027Z,74.69
2023-02-06T00:16:42.336Z,74.52
2023-02-06T00:19:10.683Z,74.88
2023-02-06T00:21:39.073Z,74.69
2023-02-06T00:24:07.493Z,74.67
2023-02-06T00:26:35.967Z,74.76
2023-02-06T00:29:04.274Z,74.77
2023-02-06T00:31:32.563Z,74.89
2023-02-06T00:34:03.645Z,74.82
2023-02-06T00:36:33.255Z,74.61
2023-02-06T00:39:01.523Z,74.58
2023-02-06T00:41:29.718Z,74.77
2023-02-06T00:43:58.024Z,74.84
2023-02-06T00:46:26.386Z,74.69
2023-02-06T00:48:54.643Z,74.50
2023-02-06T00:51:22.964Z,74.78
2023-02-06T00:53:51.357Z,74.60
2023-02-06T00:56:19.887Z,74.47
2023-02-06T00:58:48.302Z,74.76
2023-02-06T01:01:16.543Z,74.62
2023-02-06T01:03:44.857Z,74.74
2023-02-06T01:06:13.182Z,74.60
2023-02-06T01:08:41.413Z,74.74
2023-02-06T01:11:18.818Z,74.58
2023-02-06T01:13:47.940Z,74.42
2023-02-06T01:16:21.946Z,74.67
2023-02-06T01:18:51.101Z,74.30
2023-02-06T01:21:23.220Z,74.66
2023-02-06T01:23:54.298Z,74.71
2023-02-06T01:26:27.158Z,74.53
2023-02-06T01:28:56.499Z,74.54
2023-02-06T01:31:28.915Z,74.55
2023-02-06T01:34:00.163Z,74.58
2023-02-06T01:36:29.161Z,74.48
2023-02-06T01:38:57.539Z,74.53
2023-02-06T01:41:25.854Z,74.39
2023-02-06T01:44:11.596Z,74.61
2023-02-06T01:46:42.561Z,74.61
2023-02-06T01:49:18.444Z,74.49
2023-02-06T01:51:49.469Z,74.53
2023-02-06T01:54:17.893Z,74.36
2023-02-06T01:56:53.544Z,74.51
2023-02-06T01:59:23.318Z,74.43
2023-02-06T02:01:51.598Z,74.45
2023-02-06T02:04:22.041Z,74.78
2023-02-06T02:07:17.941Z,74.51
2023-02-06T02:09:46.658Z,74.71
2023-02-06T02:12:15.022Z,74.71
2023-02-06T02:14:45.733Z,74.50
2023-02-06T02:18:07.129Z,74.48
2023-02-06T02:20:47.578Z,74.53
2023-02-06T02:23:15.869Z,74.63
2023-02-06T02:25:56.378Z,74.58
2023-02-06T02:28:56.309Z,74.47
2023-02-06T02:31:43.195Z,74.35
2023-02-06T02:34:32.895Z,74.36
2023-02-06T02:37:28.932Z,74.48
2023-02-06T02:39:57.275Z,74.60
2023-02-06T02:42:32.491Z,74.46
2023-02-06T02:45:16.693Z,74.43
2023-02-06T02:47:56.071Z,74.48
2023-02-06T02:50:25.411Z,74.41
2023-02-06T02:52:53.709Z,74.33
2023-02-06T02:55:24.046Z,74.36
2023-02-06T02:57:59.527Z,74.56
2023-02-06T03:00:29.318Z,74.44
2023-02-06T03:02:58.717Z,74.72
2023-02-06T03:05:28.199Z,74.17
2023-02-06T03:08:11.010Z,74.40
2023-02-06T03:10:52.427Z,74.58
2023-02-06T03:13:40.110Z,73.96
2023-02-06T03:16:14.726Z,74.32
2023-02-06T03:18:53.579Z,74.16
2023-02-06T03:21:24.748Z,73.88
2023-02-06T03:23:56.918Z,73.98
2023-02-06T03:26:28.667Z,74.27
2023-02-06T03:29:02.668Z,73.87
2023-02-06T03:31:42.693Z,74.44
2023-02-06T03:34:34.882Z,74.07
2023-02-06T03:37:03.179Z,73.94
2023-02-06T03:39:31.503Z,74.34
2023-02-06T03:42:01.587Z,74.22
2023-02-06T03:44:36.074Z,74.16
2023-02-06T03:47:07.928Z,74.20
2023-02-06T03:49:39.962Z,74.48
2023-02-06T03:52:16.061Z,74.26
2023-02-06T03:54:55.068Z,74.39
2023-02-06T03:57:25.018Z,74.07
2023-02-06T03:59:53.421Z,74.20
2023-02-06T04:02:24.610Z,74.42
2023-02-06T04:04:53.021Z,74.18
2023-02-06T04:07:27.732Z,74.19
2023-02-06T04:09:56.225Z,74.29
2023-02-06T04:12:25.170Z,73.94
2023-02-06T04:14:53.595Z,74.22
2023-02-06T04:17:40.710Z,73.95
2023-02-06T04:20:10.638Z,74.21
2023-02-06T04:22:40.266Z,74.21
2023-02-06T04:25:08.759Z,74.22
2023-02-06T04:27:38.278Z,73.71
2023-02-06T04:30:07.100Z,73.97
2023-02-06T04:32:35.506Z,74.10
2023-02-06T04:35:04.125Z,74.15
2023-02-06T04:37:32.898Z,74.15
2023-02-06T04:40:01.222Z,74.02
2023-02-06T04:42:29.599Z,74.28
2023-02-06T04:44:57.806Z,73.81
2023-02-06T04:47:26.100Z,74.26
2023-02-06T04:49:54.374Z,74.03
2023-02-06T04:52:22.718Z,73.89
2023-02-06T04:54:50.950Z,73.91
2023-02-06T04:57:19.307Z,74.20
2023-02-06T04:59:47.511Z,73.90
2023-02-06T05:02:15.906Z,73.90
2023-02-06T05:04:44.305Z,73.92
2023-02-06T05:07:12.537Z,74.10
2023-02-06T05:09:40.731Z,73.95
2023-02-06T05:12:09.083Z,74.26
2023-02-06T05:14:37.369Z,73.81
2023-02-06T05:17:05.567Z,73.73
2023-02-06T05:19:33.918Z,73.93
2023-02-06T05:22:02.372Z,74.03
2023-02-06T05:24:30.848Z,73.96
2023-02-06T05:26:59.171Z,73.91
2023-02-06T05:29:27.958Z,74.29
2023-02-06T05:31:56.251Z,74.27
2023-02-06T05:34:24.761Z,74.05
2023-02-06T05:36:52.989Z,73.82
2023-02-06T05:39:21.401Z,73.95
2023-02-06T05:41:49.677Z,74.09
2023-02-06T05:44:17.850Z,73.89
2023-02-06T05:46:48.627Z,73.86
2023-02-06T05:49:17.212Z,74.06
2023-02-06T05:51:45.446Z,74.02
2023-02-06T05:54:15.559Z,73.86
2023-02-06T05:56:44.314Z,74.26
2023-02-06T05:59:12.603Z,73.94
2023-02-06T06:01:40.857Z,73.88
2023-02-06T06:04:09.181Z,74.07
2023-02-06T06:06:37.551Z,74.16
2023-02-06T06:09:06.079Z,73.88
2023-02-06T06:11:34.344Z,74.19
2023-02-06T06:14:02.618Z,74.31
2023-02-06T06:16:31.100Z,73.99
2023-02-06T06:18:59.430Z,73.94
2023-02-06T06:21:27.811Z,73.76
2023-02-06T06:23:56.403Z,74.06
2023-02-06T06:26:24.743Z,74.01
2023-02-06T06:28:52.959Z,74.21
2023-02-06T06:31:21.386Z,74.02
2023-02-06T06:33:49.785Z,74.29
2023-02-06T06:36:18.029Z,73.97
2023-02-06T06:38:46.295Z,73.89
2023-02-06T06:41:14.596Z,73.85
2023-02-06T06:43:42.873Z,73.87
2023-02-06T06:46:11.332Z,73.93
2023-02-06T06:48:40.559Z,74.14
2023-02-06T06:51:08.798Z,74.06
2023-02-06T06:53:40.331Z,73.90
2023-02-06T06:56:11.957Z,74.11
2023-02-06T06:58:40.744Z,73.89
2023-02-06T07:01:09.532Z,74.04
2023-02-06T07:03:38.066Z,73.85
2023-02-06T07:06:06.686Z,74.03
2023-02-06T07:08:36.176Z,74.28
2023-02-06T07:11:05.017Z,74.07
2023-02-06T07:13:33.213Z,74.11
2023-02-06T07:16:01.732Z,74.27
2023-02-06T07:18:30.069Z,74.20
2023-02-06T07:20:58.410Z,74.48
2023-02-06T07:23:27.130Z,74.14
2023-02-06T07:25:56.726Z,73.95
2023-02-06T07:28:24.897Z,74.26
2023-02-06T07:30:53.419Z,74.12
2023-02-06T07:33:21.715Z,74.39
2023-02-06T07:35:49.978Z,74.39
2023-02-06T07:38:18.452Z,73.99
2023-02-06T07:40:46.706Z,74.03
2023-02-06T07:43:14.967Z,74.48
2023-02-06T07:45:43.678Z,74.22
2023-02-06T07:48:11.980Z,74.40
2023-02-06T07:50:40.194Z,74.41
2023-02-06T07:53:08.559Z,74.24
2023-02-06T07:55:38.672Z,74.09
2023-02-06T07:58:07.160Z,74.30
2023-02-06T08:00:35.426Z,74.26
2023-02-06T08:03:05.188Z,74.46
2023-02-06T08:05:36.260Z,74.24
2023-02-06T08:08:05.283Z,74.15
2023-02-06T08:10:33.618Z,74.21
2023-02-06T08:13:02.144Z,74.40
2023-02-06T08:15:30.476Z,74.48
2023-02-06T08:17:58.761Z,73.77
2023-02-06T08:20:26.942Z,74.08
2023-02-06T08:22:55.411Z,73.77
2023-02-06T08:25:24.633Z,73.81
2023-02-06T08:27:55.205Z,73.76
2023-02-06T08:30:24.266Z,73.75
2023-02-06T08:32:52.744Z,73.97
2023-02-06T08:35:21.076Z,74.09
2023-02-06T08:37:49.384Z,73.95
2023-02-06T08:40:17.825Z,73.88
2023-02-06T08:42:53.831Z,74.00
2023-02-06T08:45:22.195Z,74.08
2023-02-06T08:47:51.411Z,74.18
2023-02-06T08:50:19.716Z,74.04
2023-02-06T08:52:48.008Z,73.98
2023-02-06T08:55:16.280Z,73.98
2023-02-06T08:57:44.510Z,74.14
2023-02-06T09:00:13.616Z,73.96
2023-02-06T09:02:42.053Z,74.18
2023-02-06T09:05:10.487Z,74.25
2023-02-06T09:07:38.938Z,74.00
2023-02-06T09:10:16.219Z,74.51
2023-02-06T09:12:54.106Z,74.27
2023-02-06T09:15:22.430Z,74.40
2023-02-06T09:17:50.772Z,74.53
2023-02-06T09:20:19.118Z,74.57
2023-02-06T09:22:47.347Z,74.36
2023-02-06T09:25:15.676Z,74.28
2023-02-06T09:27:46.887Z,74.14
2023-02-06T09:30:15.799Z,74.19
2023-02-06T09:32:44.388Z,74.65
2023-02-06T09:35:12.814Z,74.36
2023-02-06T09:37:41.301Z,74.47
2023-02-06T09:40:12.889Z,74.26
2023-02-06T09:42:42.405Z,74.26
2023-02-06T09:45:21.781Z,74.25
2023-02-06T09:47:55.866Z,74.41
2023-02-06T09:50:39.949Z,74.78
2023-02-06T09:53:16.799Z,74.40
2023-02-06T09:55:55.735Z,74.60
2023-02-06T09:58:46.563Z,74.52
2023-02-06T10:01:29.760Z,74.33
2023-02-06T10:04:13.323Z,74.52
2023-02-06T10:07:09.178Z,74.77
2023-02-06T10:10:06.436Z,74.46
2023-02-06T10:12:53.567Z,74.81
2023-02-06T10:15:34.165Z,74.65
2023-02-06T10:18:11.433Z,74.23
2023-02-06T10:20:55.770Z,74.57
2023-02-06T10:23:41.881Z,74.76
2023-02-06T10:26:17.969Z,74.69
2023-02-06T10:28:52.584Z,74.69
2023-02-06T10:31:21.054Z,74.67
2023-02-06T10:34:01.123Z,74.26
2023-02-06T10:36:52.390Z,74.74
2023-02-06T10:39:35.564Z,74.31
2023-02-06T10:42:36.461Z,74.50
2023-02-06T10:45:21.984Z,74.49
2023-02-06T10:48:03.262Z,74.21
2023-02-06T10:50:42.945Z,74.65
2023-02-06T10:53:26.731Z,74.51
2023-02-06T10:56:03.564Z,74.38
2023-02-06T10:58:51.427Z,74.99
2023-02-06T11:01:26.473Z,74.01
2023-02-06T11:04:06.575Z,74.29
2023-02-06T11:06:35.675Z,74.68
2023-02-06T11:09:04.189Z,74.04
2023-02-06T11:11:38.607Z,74.57
2023-02-06T11:14:25.142Z,74.87
2023-02-06T11:16:54.006Z,75.09
2023-02-06T11:19:54.469Z,75.15
2023-02-06T11:22:38.841Z,75.10
2023-02-06T11:25:25.540Z,75.05
2023-02-06T11:27:55.082Z,75.24
2023-02-06T11:30:40.143Z,75.43
2023-02-06T11:33:21.844Z,75.25
2023-02-06T11:35:59.758Z,75.20
2023-02-06T11:38:31.046Z,75.20
2023-02-06T11:41:02.605Z,74.67
2023-02-06T11:43:34.575Z,74.56
2023-02-06T11:46:17.099Z,75.21
2023-02-06T11:48:54.948Z,75.01
2023-02-06T11:51:25.871Z,74.78
2023-02-06T11:54:00.501Z,74.72
2023-02-06T11:56:31.521Z,74.57
2023-02-06T11:59:23.482Z,74.42
2023-02-06T12:01:51.807Z,74.44
2023-02-06T12:04:34.237Z,74.36
2023-02-06T12:07:30.547Z,74.34
2023-02-06T12:09:58.847Z,74.24
2023-02-06T12:12:38.983Z,74.18
2023-02-06T12:15:43.734Z,74.29
2023-02-06T12:18:25.407Z,74.12
2023-02-06T12:21:01.877Z,74.07
2023-02-06T12:23:50.190Z,74.07
2023-02-06T12:26:22.135Z,74.20
2023-02-06T12:28:55.194Z,74.17
2023-02-06T12:31:34.973Z,74.06
2023-02-06T12:34:12.482Z,73.83
2023-02-06T12:36:54.970Z,73.89
2023-02-06T12:39:23.428Z,73.89
2023-02-06T12:42:27.701Z,73.66
2023-02-06T12:45:06.539Z,73.87
2023-02-06T12:47:44.690Z,73.85
2023-02-06T12:50:27.261Z,73.74
2023-02-06T12:52:55.787Z,73.85
2023-02-06T12:55:28.983Z,73.76
2023-02-06T12:57:58.299Z,73.65
2023-02-06T13:00:51.634Z,73.95
2023-02-06T13:03:48.210Z,74.09
2023-02-06T13:06:27.693Z,73.93
2023-02-06T13:09:06.993Z,74.18
2023-02-06T13:11:41.224Z,73.97
2023-02-06T13:14:25.298Z,73.95
2023-02-06T13:16:58.412Z,73.59
2023-02-06T13:19:31.601Z,73.62
2023-02-06T13:22:17.026Z,73.77
2023-02-06T13:24:49.078Z,73.53
2023-02-06T13:27:23.892Z,73.57
2023-02-06T13:29:54.251Z,73.61
2023-02-06T13:32:23.000Z,73.77
2023-02-06T13:35:15.707Z,73.84
2023-02-06T13:37:48.253Z,73.82
2023-02-06T13:40:32.391Z,73.77
2023-02-06T13:43:03.698Z,73.66
2023-02-06T13:45:59.769Z,73.43
2023-02-06T13:49:00.141Z,73.42
2023-02-06T13:52:00.455Z,73.49
2023-02-06T13:54:37.615Z,73.43
2023-02-06T13:57:15.970Z,73.35
2023-02-06T14:00:10.972Z,73.42
2023-02-06T14:02:49.257Z,73.63
2023-02-06T14:05:40.429Z,73.45
2023-02-06T14:08:25.873Z,73.26
2023-02-06T14:11:15.486Z,73.24
2023-02-06T14:14:05.814Z,73.47
2023-02-06T14:16:59.957Z,73.59
2023-02-06T14:19:46.892Z,73.59
2023-02-06T14:22:36.122Z,73.66
2023-02-06T14:25:35.397Z,73.75
2023-02-06T14:28:30.239Z,73.47
2023-02-06T14:31:20.444Z,73.28
2023-02-06T14:34:00.717Z,73.28
2023-02-06T14:36:34.609Z,73.37
2023-02-06T14:39:28.646Z,73.51
2023-02-06T14:41:57.882Z,73.59
2023-02-06T14:44:31.886Z,73.62
2023-02-06T14:47:00.616Z,73.59
2023-02-06T14:49:37.985Z,73.52
2023-02-06T14:52:06.475Z,73.66
2023-02-06T14:54:42.298Z,73.63
2023-02-06T14:57:25.799Z,73.68
2023-02-06T14:59:57.798Z,73.70
2023-02-06T15:02:32.301Z,73.67
2023-02-06T15:05:02.982Z,73.69
2023-02-06T15:07:36.196Z,73.87
2023-02-06T15:10:14.356Z,74.01
2023-02-06T15:12:51.440Z,74.20
2023-02-06T15:15:33.854Z,74.14
2023-02-06T15:18:07.124Z,74.08
2023-02-06T15:20:42.698Z,74.16
2023-02-06T15:23:41.969Z,74.17
2023-02-06T15:26:29.123Z,74.19
2023-02-06T15:29:00.128Z,74.21
2023-02-06T15:31:30.226Z,74.04
2023-02-06T15:33:59.864Z,74.17
2023-02-06T15:36:32.751Z,74.24
2023-02-06T15:39:02.867Z,74.35
2023-02-06T15:41:32.204Z,74.20
2023-02-06T15:44:04.792Z,74.32
2023-02-06T15:46:33.644Z,74.17
2023-02-06T15:49:02.318Z,74.14
2023-02-06T15:51:41.042Z,74.28
2023-02-06T15:54:18.304Z,74.10
2023-02-06T15:57:02.429Z,74.21
2023-02-06T15:59:35.288Z,74.35
2023-02-06T16:02:04.226Z,74.28
2023-02-06T16:04:37.165Z,74.29
2023-02-06T16:07:25.246Z,74.29
2023-02-06T16:10:06.488Z,74.26
2023-02-06T16:12:36.709Z,74.16
2023-02-06T16:15:24.299Z,74.21
2023-02-06T16:17:53.306Z,74.24
2023-02-06T16:20:32.777Z,74.22
2023-02-06T16:23:27.087Z,74.20
2023-02-06T16:26:03.623Z,74.27
2023-02-06T16:28:31.984Z,74.24
2023-02-06T16:31:04.817Z,74.37
2023-02-06T16:33:36.322Z,74.20
2023-02-06T16:36:05.469Z,74.40
2023-02-06T16:38:34.675Z,74.28
2023-02-06T16:41:03.003Z,74.44
2023-02-06T16:43:31.598Z,74.21
2023-02-06T16:46:02.357Z,74.16
2023-02-06T16:48:30.749Z,74.13
2023-02-06T16:50:59.643Z,74.16
2023-02-06T16:53:29.195Z,74.15
2023-02-06T16:55:57.853Z,74.13
2023-02-06T16:58:28.785Z,74.21
2023-02-06T17:00:57.182Z,74.26
2023-02-06T17:03:26.237Z,74.26
2023-02-06T17:05:54.744Z,74.22
2023-02-06T17:08:25.553Z,74.21
2023-02-06T17:10:53.870Z,74.33
2023-02-06T17:13:24.730Z,74.37
2023-02-06T17:15:54.205Z,74.35
2023-02-06T17:18:23.845Z,74.27
2023-02-06T17:20:53.913Z,74.31
2023-02-06T17:23:22.869Z,74.33
2023-02-06T17:25:52.294Z,74.38
2023-02-06T17:28:20.657Z,74.40
2023-02-06T17:30:51.155Z,74.58
2023-02-06T17:33:20.472Z,74.56
2023-02-06T17:35:49.321Z,74.38
2023-02-06T17:38:17.557Z,74.40
2023-02-06T17:40:45.966Z,74.38
2023-02-06T17:43:14.338Z,74.52
2023-02-06T17:45:42.934Z,74.47
2023-02-06T17:48:11.396Z,74.49
2023-02-06T17:50:41.408Z,74.49
2023-02-06T17:53:12.794Z,74.55
2023-02-06T17:55:41.227Z,74.57
2023-02-06T17:58:09.468Z,74.72
2023-02-06T18:00:38.016Z,74.55
2023-02-06T18:03:06.609Z,74.54
2023-02-06T18:05:35.111Z,74.58
2023-02-06T18:08:03.595Z,74.63
2023-02-06T18:10:31.836Z,74.81
2023-02-06T18:13:00.270Z,74.92
2023-02-06T18:15:30.906Z,74.78
2023-02-06T18:18:00.344Z,74.86
2023-02-06T18:20:28.554Z,74.76
2023-02-06T18:22:56.799Z,74.75
2023-02-06T18:25:25.086Z,74.65
2023-02-06T18:27:53.330Z,74.70
2023-02-06T18:30:21.709Z,74.72
2023-02-06T18:36:04.993Z,74.60
2023-02-06T18:38:33.521Z,74.66
2023-02-06T18:41:06.426Z,74.73
2023-02-06T18:43:34.721Z,74.85
2023-02-06T18:46:08.865Z,74.90
2023-02-06T18:48:37.149Z,74.89
2023-02-06T18:51:07.777Z,74.82
2023-02-06T18:53:36.034Z,74.95
2023-02-06T18:56:05.113Z,74.75
2023-02-06T18:58:33.423Z,74.84
2023-02-06T19:01:02.769Z,74.70
2023-02-06T19:03:31.158Z,74.72
2023-02-06T19:05:59.508Z,75.04
2023-02-06T19:08:28.248Z,74.92
2023-02-06T19:10:57.625Z,75.10
2023-02-06T19:13:26.000Z,74.98
2023-02-06T19:16:07.917Z,74.72
2023-02-06T19:18:39.568Z,75.07
2023-02-06T19:21:11.684Z,74.85
2023-02-06T19:23:40.443Z,74.99
2023-02-06T19:26:10.522Z,74.89
2023-02-06T19:28:40.238Z,75.08
2023-02-06T19:31:10.607Z,74.88
2023-02-06T19:33:40.895Z,74.93
2023-02-06T19:36:14.180Z,75.07
2023-02-06T19:38:43.974Z,74.97
2023-02-06T19:41:18.634Z,74.86
2023-02-06T19:43:48.451Z,74.90
2023-02-06T19:46:20.175Z,75.00
2023-02-06T19:48:50.138Z,75.09
2023-02-06T19:51:22.808Z,74.96
2023-02-06T19:53:53.459Z,74.94
2023-02-06T19:56:24.784Z,74.98
2023-02-06T19:58:57.963Z,74.92
2023-02-06T20:01:29.832Z,74.62
2023-02-06T20:04:00.522Z,74.67
2023-02-06T20:06:35.071Z,74.84
2023-02-06T20:09:05.104Z,74.64
2023-02-06T20:11:34.189Z,74.81
2023-02-06T20:14:02.523Z,74.95
2023-02-06T20:16:33.655Z,75.09
2023-02-06T20:19:19.483Z,75.00
2023-02-06T20:21:53.756Z,74.99
2023-02-06T20:24:25.500Z,74.86
2023-02-06T20:26:57.783Z,74.66
2023-02-06T20:29:29.185Z,74.86
2023-02-06T20:31:58.574Z,74.89
2023-02-06T20:34:27.232Z,75.12
2023-02-06T20:36:56.002Z,75.02
2023-02-06T20:39:26.095Z,75.01
2023-02-06T20:41:54.871Z,75.13
2023-02-06T20:44:23.099Z,75.26
2023-02-06T20:46:51.388Z,75.16
2023-02-06T20:49:26.416Z,74.94
2023-02-06T20:51:55.788Z,74.98
2023-02-06T20:54:25.158Z,75.08
2023-02-06T20:56:53.699Z,75.03
2023-02-06T20:59:22.861Z,74.90
2023-02-06T21:01:51.125Z,75.22
2023-02-06T21:04:20.547Z,75.15
2023-02-06T21:06:50.218Z,74.97
2023-02-06T21:09:19.454Z,75.01
2023-02-06T21:11:50.311Z,74.93
2023-02-06T21:14:20.484Z,75.02
2023-02-06T21:16:49.334Z,74.82
2023-02-06T21:19:19.735Z,74.80
2023-02-06T21:21:48.937Z,74.71
2023-02-06T21:24:18.251Z,74.75
2023-02-06T21:26:47.629Z,74.71
2023-02-06T21:29:16.256Z,74.91
2023-02-06T21:31:46.453Z,74.81
2023-02-06T21:34:18.832Z,74.90
2023-02-06T21:36:48.412Z,74.58
2023-02-06T21:39:19.427Z,74.68
2023-02-06T21:41:51.887Z,74.80
2023-02-06T21:44:23.825Z,74.84
2023-02-06T21:46:53.244Z,74.92
2023-02-06T21:49:23.441Z,74.68
2023-02-06T21:51:53.379Z,74.54
2023-02-06T21:54:22.669Z,74.66
2023-02-06T21:56:51.790Z,74.63
2023-02-06T21:59:20.071Z,74.32
2023-02-06T22:01:48.454Z,74.53
2023-02-06T22:04:16.872Z,74.51
2023-02-06T22:06:45.303Z,74.30
2023-02-06T22:09:16.505Z,74.41
2023-02-06T22:11:45.252Z,74.59
2023-02-06T22:14:16.571Z,74.61
2023-02-06T22:16:47.066Z,74.77
2023-02-06T22:19:16.517Z,74.93
2023-02-06T22:21:47.180Z,74.75
2023-02-06T22:24:15.563Z,74.73
2023-02-06T22:26:44.219Z,74.79
2023-02-06T22:29:15.515Z,74.62
2023-02-06T22:31:45.506Z,74.94
2023-02-06T22:34:21.033Z,74.80
2023-02-06T22:36:51.365Z,74.90
2023-02-06T22:39:20.143Z,74.92
2023-02-06T22:41:49.282Z,75.28
2023-02-06T22:44:20.025Z,74.98
2023-02-06T22:46:51.731Z,75.48
2023-02-06T22:49:21.699Z,75.15
2023-02-06T22:51:49.976Z,75.40
2023-02-06T22:54:18.749Z,75.26
2023-02-06T22:56:48.690Z,75.58
2023-02-06T22:59:20.473Z,75.44
2023-02-06T23:01:50.502Z,75.36
2023-02-06T23:04:27.476Z,75.39
2023-02-06T23:06:56.499Z,75.29
2023-02-06T23:09:28.145Z,75.44
2023-02-06T23:11:58.542Z,75.42
2023-02-06T23:14:29.478Z,75.63
2023-02-06T23:17:00.180Z,75.67
2023-02-06T23:19:29.676Z,75.51
2023-02-06T23:21:58.181Z,75.64
2023-02-06T23:24:26.753Z,75.49
2023-02-06T23:26:55.115Z,75.47
2023-02-06T23:29:24.155Z,75.17
2023-02-06T23:31:53.034Z,75.45
2023-02-06T23:34:24.777Z,75.57
2023-02-06T23:36:53.421Z,75.31
2023-02-06T23:39:22.963Z,75.49
2023-02-06T23:41:51.317Z,75.48
2023-02-06T23:44:19.666Z,75.40
2023-02-06T23:46:48.110Z,75.27
2023-02-06T23:49:16.773Z,75.19
2023-02-06T23:51:45.339Z,75.09
2023-02-06T23:54:16.515Z,75.30
2023-02-06T23:56:44.940Z,75.43
2023-02-06T23:59:13.308Z,75.30
